createdAt,value
2019-03-04T00:01:03.682Z,4.20
2019-03-04T00:03:34.313Z,3.58
2019-03-04T00:06:05.041Z,3.55
2019-03-04T00:08:35.681Z,4.65
2019-03-04T00:11:06.214Z,4.78
2019-03-04T00:13:36.698Z,4.17
2019-03-04T00:16:07.272Z,3.75
2019-03-04T00:18:37.903Z,4.15
2019-03-04T00:21:08.387Z,3.90
2019-03-04T00:23:38.963Z,3.72
2019-03-04T00:26:09.503Z,3.10
2019-03-04T00:28:40.022Z,3.47
2019-03-04T00:31:10.653Z,3.37
2019-03-04T00:33:41.185Z,2.90
2019-03-04T00:36:11.703Z,3.95
2019-03-04T00:38:42.243Z,3.20
2019-03-04T00:41:12.774Z,3.00
2019-03-04T00:43:43.305Z,3.33
2019-03-04T00:46:13.836Z,3.50
2019-03-04T00:48:44.364Z,2.67
2019-03-04T00:51:15.370Z,3.80
2019-03-04T00:53:46.151Z,3.62
2019-03-04T00:56:16.779Z,3.62
2019-03-04T00:58:48.331Z,3.40
2019-03-04T01:01:18.880Z,2.98
2019-03-04T01:03:49.519Z,3.02
2019-03-04T01:06:20.072Z,2.98
2019-03-04T01:08:51.683Z,2.40
2019-03-04T01:11:22.219Z,2.95
2019-03-04T01:13:52.857Z,2.60
2019-03-04T01:16:23.385Z,2.98
2019-03-04T01:18:53.869Z,2.75
2019-03-04T01:21:24.402Z,2.60
2019-03-04T01:23:54.975Z,3.25
2019-03-04T01:26:25.607Z,2.85
2019-03-04T01:28:56.232Z,3.08
2019-03-04T01:31:26.873Z,3.50
2019-03-04T01:33:57.349Z,3.05
2019-03-04T01:36:27.934Z,2.83
2019-03-04T01:38:58.464Z,2.65
2019-03-04T01:41:29.094Z,3.80
2019-03-04T01:43:59.628Z,3.17
2019-03-04T01:46:30.155Z,3.55
2019-03-04T01:49:00.719Z,2.87
2019-03-04T01:51:31.204Z,3.10
2019-03-04T01:54:02.054Z,2.87
2019-03-04T01:56:32.589Z,3.20
2019-03-04T01:59:03.391Z,3.00
2019-03-04T02:01:33.953Z,2.83
2019-03-04T02:04:04.483Z,2.37
2019-03-04T02:06:35.113Z,2.92
2019-03-04T02:09:06.673Z,2.67
2019-03-04T02:11:39.180Z,2.52
2019-03-04T02:14:09.678Z,2.27
2019-03-04T02:16:40.155Z,2.15
2019-03-04T02:19:10.836Z,2.85
2019-03-04T02:21:41.476Z,2.02
2019-03-04T02:24:25.588Z,2.58
2019-03-04T02:26:56.053Z,3.05
2019-03-04T02:29:26.588Z,2.10
2019-03-04T02:31:57.196Z,2.30
2019-03-04T02:34:27.745Z,2.62
2019-03-04T02:36:58.319Z,2.60
2019-03-04T02:39:28.853Z,2.33
2019-03-04T02:41:59.546Z,2.27
2019-03-04T02:44:30.116Z,2.47
2019-03-04T02:47:00.709Z,2.70
2019-03-04T02:49:31.337Z,2.45
2019-03-04T02:52:01.863Z,3.08
2019-03-04T02:54:32.509Z,2.80
2019-03-04T02:57:03.037Z,2.55
2019-03-04T02:59:33.531Z,2.37
2019-03-04T03:02:05.731Z,2.70
2019-03-04T03:04:36.363Z,2.90
2019-03-04T03:07:07.101Z,2.58
2019-03-04T03:09:37.730Z,3.08
2019-03-04T03:12:08.470Z,2.85
2019-03-04T03:14:39.041Z,2.80
2019-03-04T03:17:10.103Z,3.15
2019-03-04T03:19:40.675Z,3.22
2019-03-04T03:22:11.207Z,2.87
2019-03-04T03:24:42.965Z,2.80
2019-03-04T03:27:13.497Z,2.58
2019-03-04T03:29:44.035Z,2.40
2019-03-04T03:32:14.568Z,3.02
2019-03-04T03:34:45.185Z,2.67
2019-03-04T03:37:15.827Z,3.22
2019-03-04T03:39:46.359Z,2.72
2019-03-04T03:42:19.037Z,3.30
2019-03-04T03:44:49.148Z,2.45
2019-03-04T03:47:19.889Z,2.37
2019-03-04T03:49:50.419Z,2.62
2019-03-04T03:52:20.950Z,2.75
2019-03-04T03:54:55.266Z,2.67
2019-03-04T03:57:25.847Z,3.60
2019-03-04T03:59:56.437Z,4.30
2019-03-04T04:02:26.976Z,3.10
2019-03-04T04:04:57.499Z,3.37
2019-03-04T04:07:28.049Z,2.90
2019-03-04T04:09:58.557Z,3.85
2019-03-04T04:12:29.192Z,3.52
2019-03-04T04:14:59.721Z,3.70
2019-03-04T04:17:30.255Z,3.75
2019-03-04T04:20:00.719Z,4.15
2019-03-04T04:22:31.519Z,3.87
2019-03-04T04:25:02.148Z,3.08
2019-03-04T04:27:32.779Z,3.42
2019-03-04T04:30:04.129Z,2.85
2019-03-04T04:32:34.756Z,3.30
2019-03-04T04:35:06.376Z,3.50
2019-03-04T04:37:36.948Z,3.10
2019-03-04T04:40:10.858Z,2.75
2019-03-04T04:42:41.390Z,3.40
2019-03-04T04:45:12.021Z,3.40
2019-03-04T04:47:43.774Z,2.67
2019-03-04T04:50:23.524Z,3.40
2019-03-04T04:52:53.998Z,4.92
2019-03-04T04:55:24.586Z,4.55
2019-03-04T04:57:55.073Z,4.60
2019-03-04T05:00:25.645Z,5.08
2019-03-04T05:02:56.180Z,4.90
2019-03-04T05:05:26.675Z,7.87
2019-03-04T05:07:57.237Z,4.70
2019-03-04T05:10:27.879Z,4.50
2019-03-04T05:12:58.511Z,4.37
2019-03-04T05:15:29.139Z,4.60
2019-03-04T05:17:59.636Z,3.83
2019-03-04T05:20:30.207Z,3.80
2019-03-04T05:23:00.695Z,4.50
2019-03-04T05:25:31.260Z,4.12
2019-03-04T05:28:01.904Z,4.10
2019-03-04T05:30:32.433Z,4.67
2019-03-04T05:33:02.965Z,4.97
2019-03-04T05:35:33.696Z,5.10
2019-03-04T05:38:05.143Z,4.83
2019-03-04T05:40:35.784Z,5.08
2019-03-04T05:43:06.315Z,5.58
2019-03-04T05:45:36.794Z,5.15
2019-03-04T05:48:07.785Z,5.50
2019-03-04T05:50:38.580Z,6.58
2019-03-04T05:53:09.151Z,5.40
2019-03-04T05:55:39.625Z,7.50
2019-03-04T05:58:10.212Z,10.60
2019-03-04T06:00:42.990Z,9.80
2019-03-04T06:03:16.771Z,6.72
2019-03-04T06:05:47.431Z,8.28
2019-03-04T06:08:17.963Z,5.22
2019-03-04T06:10:48.435Z,4.58
2019-03-04T06:13:19.025Z,4.03
2019-03-04T06:15:49.553Z,4.65
2019-03-04T06:18:20.293Z,5.92
2019-03-04T06:20:50.826Z,5.87
2019-03-04T06:23:21.329Z,7.50
2019-03-04T06:25:51.931Z,7.67
2019-03-04T06:28:22.514Z,21.45
2019-03-04T06:30:53.024Z,19.70
2019-03-04T06:33:23.610Z,14.78
2019-03-04T06:35:54.138Z,10.68
2019-03-04T06:38:24.748Z,11.70
2019-03-04T06:40:55.378Z,9.75
2019-03-04T06:43:26.118Z,10.20
2019-03-04T06:45:56.607Z,13.88
2019-03-04T06:48:27.148Z,26.05
2019-03-04T06:50:57.643Z,30.27
2019-03-04T06:53:40.531Z,17.52
2019-03-04T06:56:23.137Z,11.60
2019-03-04T06:58:59.613Z,10.28
2019-03-04T07:01:37.021Z,10.55
2019-03-04T07:04:10.802Z,9.00
2019-03-04T07:06:41.296Z,8.83
2019-03-04T07:09:11.907Z,9.70
2019-03-04T07:11:42.393Z,8.68
2019-03-04T07:14:12.938Z,9.40
2019-03-04T07:16:45.993Z,9.75
2019-03-04T07:19:16.957Z,8.80
2019-03-04T07:21:47.448Z,6.00
2019-03-04T07:24:18.020Z,7.40
2019-03-04T07:26:48.511Z,8.10
2019-03-04T07:29:21.880Z,9.53
2019-03-04T07:31:52.476Z,9.78
2019-03-04T07:34:22.962Z,6.87
2019-03-04T07:36:53.509Z,8.43
2019-03-04T07:39:26.619Z,9.05
2019-03-04T07:41:57.166Z,7.60
2019-03-04T07:44:27.775Z,6.53
2019-03-04T07:47:15.836Z,7.20
2019-03-04T07:49:49.343Z,6.30
2019-03-04T07:52:19.972Z,9.28
2019-03-04T07:54:50.596Z,8.93
2019-03-04T07:57:30.229Z,10.00
2019-03-04T08:00:14.194Z,9.98
2019-03-04T08:02:44.823Z,9.80
2019-03-04T08:05:15.312Z,7.10
2019-03-04T08:08:09.072Z,6.05
2019-03-04T08:11:03.322Z,6.50
2019-03-04T08:13:37.230Z,6.72
2019-03-04T08:16:09.324Z,7.05
2019-03-04T08:18:57.301Z,6.75
2019-03-04T08:21:27.966Z,6.08
2019-03-04T08:23:58.520Z,6.70
2019-03-04T08:26:46.639Z,6.35
2019-03-04T08:29:18.170Z,6.47
2019-03-04T08:32:01.115Z,6.55
2019-03-04T08:34:31.975Z,6.45
2019-03-04T08:37:05.558Z,6.42
2019-03-04T08:39:36.030Z,6.55
2019-03-04T08:42:09.595Z,6.90
2019-03-04T08:44:57.017Z,9.40
2019-03-04T08:47:45.410Z,10.43
2019-03-04T08:50:17.238Z,10.60
2019-03-04T08:52:47.793Z,9.68
2019-03-04T08:55:18.528Z,8.40
2019-03-04T08:57:49.023Z,7.17
2019-03-04T09:00:35.532Z,6.58
2019-03-04T09:03:21.524Z,7.22
2019-03-04T09:06:09.611Z,8.30
2019-03-04T09:08:40.192Z,6.70
2019-03-04T09:11:28.230Z,5.28
2019-03-04T09:13:58.872Z,5.30
2019-03-04T09:16:29.596Z,4.05
2019-03-04T09:19:00.141Z,4.12
2019-03-04T09:21:30.698Z,5.10
2019-03-04T09:24:02.629Z,3.98
2019-03-04T09:26:33.253Z,3.75
2019-03-04T09:29:03.786Z,4.55
2019-03-04T09:31:40.430Z,4.08
2019-03-04T09:34:23.235Z,4.22
2019-03-04T09:37:12.468Z,4.60
2019-03-04T09:40:00.772Z,4.40
2019-03-04T09:42:49.939Z,3.98
2019-03-04T09:45:20.425Z,6.03
2019-03-04T09:48:08.612Z,4.15
2019-03-04T09:50:57.138Z,3.90
2019-03-04T09:53:27.697Z,3.30
2019-03-04T09:55:58.225Z,4.10
2019-03-04T09:58:46.366Z,4.92
2019-03-04T10:01:20.278Z,4.08
2019-03-04T10:04:30.566Z,3.40
2019-03-04T10:07:09.977Z,4.55
2019-03-04T10:09:55.058Z,3.58
2019-03-04T10:12:53.182Z,4.78
2019-03-04T10:15:52.436Z,4.10
2019-03-04T10:18:42.335Z,9.43
2019-03-04T10:21:21.982Z,3.90
2019-03-04T10:24:10.850Z,5.00
2019-03-04T10:26:59.473Z,4.22
2019-03-04T10:29:45.056Z,4.30
2019-03-04T10:32:43.234Z,3.37
2019-03-04T10:35:19.593Z,4.55
2019-03-04T10:38:02.017Z,3.70
2019-03-04T10:40:52.670Z,4.92
2019-03-04T10:43:32.385Z,3.20
2019-03-04T10:46:32.145Z,2.75
2019-03-04T10:49:02.716Z,4.15
2019-03-04T10:51:33.345Z,3.70
2019-03-04T10:54:03.975Z,4.35
2019-03-04T10:56:34.618Z,4.60
2019-03-04T10:59:05.244Z,4.28
2019-03-04T11:01:35.873Z,4.33
2019-03-04T11:04:06.614Z,4.92
2019-03-04T11:06:37.245Z,3.20
2019-03-04T11:09:08.871Z,4.00
2019-03-04T11:11:39.840Z,3.77
2019-03-04T11:14:10.314Z,4.70
2019-03-04T11:16:40.879Z,3.67
2019-03-04T11:19:12.464Z,4.47
2019-03-04T11:21:43.094Z,4.05
2019-03-04T11:24:14.038Z,3.90
2019-03-04T11:26:44.777Z,4.47
2019-03-04T11:29:15.399Z,3.75
2019-03-04T11:31:45.864Z,4.28
2019-03-04T11:34:16.460Z,4.25
2019-03-04T11:36:47.101Z,5.80
2019-03-04T11:39:24.588Z,7.30
2019-03-04T11:41:55.210Z,6.47
2019-03-04T11:44:25.860Z,5.80
2019-03-04T11:46:56.389Z,5.05
2019-03-04T11:49:27.016Z,3.98
2019-03-04T11:51:57.879Z,5.62
2019-03-04T11:54:28.526Z,3.95
2019-03-04T11:56:59.124Z,4.90
2019-03-04T11:59:29.752Z,8.68
2019-03-04T12:02:00.494Z,12.43
2019-03-04T12:04:31.124Z,4.92
2019-03-04T12:07:01.794Z,6.28
2019-03-04T12:09:32.393Z,6.33
2019-03-04T12:12:02.941Z,4.40
2019-03-04T12:14:33.488Z,7.25
2019-03-04T12:17:04.113Z,5.47
2019-03-04T12:19:34.722Z,5.15
2019-03-04T12:22:05.281Z,15.32
2019-03-04T12:24:35.833Z,11.45
2019-03-04T12:27:06.394Z,13.20
2019-03-04T12:29:37.968Z,13.25
2019-03-04T12:32:09.834Z,13.18
2019-03-04T12:34:40.391Z,6.58
2019-03-04T12:37:10.868Z,7.05
2019-03-04T12:39:41.503Z,7.03
2019-03-04T12:42:12.056Z,11.45
2019-03-04T12:44:43.609Z,10.38
2019-03-04T12:47:16.340Z,7.30
2019-03-04T12:49:46.624Z,7.50
2019-03-04T12:52:17.251Z,9.35
2019-03-04T12:54:48.086Z,8.60
2019-03-04T12:57:18.716Z,5.87
2019-03-04T12:59:49.357Z,5.78
2019-03-04T13:02:19.991Z,4.75
2019-03-04T13:04:50.533Z,5.95
2019-03-04T13:07:21.082Z,5.80
2019-03-04T13:09:51.576Z,5.20
2019-03-04T13:12:22.321Z,5.20
2019-03-04T13:14:52.898Z,5.67
2019-03-04T13:17:23.476Z,5.08
2019-03-04T13:19:54.007Z,7.50
2019-03-04T13:22:25.673Z,6.70
2019-03-04T13:24:56.201Z,7.12
2019-03-04T13:27:26.730Z,10.25
2019-03-04T13:29:57.226Z,8.55
2019-03-04T13:32:27.699Z,6.50
2019-03-04T13:34:58.178Z,5.75
2019-03-04T13:37:28.696Z,7.70
2019-03-04T13:39:59.532Z,9.20
2019-03-04T13:42:30.031Z,9.13
2019-03-04T13:45:00.597Z,7.35
2019-03-04T13:47:31.334Z,6.22
2019-03-04T13:50:01.863Z,5.92
2019-03-04T13:52:32.492Z,6.92
2019-03-04T13:55:03.018Z,5.55
2019-03-04T13:57:33.517Z,3.90
2019-03-04T14:00:07.463Z,5.83
2019-03-04T14:02:38.301Z,6.15
2019-03-04T14:05:12.043Z,7.92
2019-03-04T14:07:42.741Z,6.90
2019-03-04T14:10:18.219Z,6.55
2019-03-04T14:12:48.830Z,6.53
2019-03-04T14:15:22.531Z,7.08
2019-03-04T14:17:53.272Z,5.20
2019-03-04T14:20:23.746Z,6.08
2019-03-04T14:22:57.653Z,7.45
2019-03-04T14:25:26.543Z,13.85
2019-03-04T14:27:57.132Z,11.55
2019-03-04T14:30:27.660Z,15.83
2019-03-04T14:32:58.208Z,8.63
2019-03-04T14:35:28.719Z,12.65
2019-03-04T14:37:59.269Z,8.63
2019-03-04T14:40:29.779Z,6.08
2019-03-04T14:43:00.310Z,7.03
2019-03-04T14:45:30.950Z,5.97
2019-03-04T14:48:01.581Z,9.05
2019-03-04T14:50:32.215Z,10.43
2019-03-04T14:53:02.745Z,10.25
2019-03-04T14:55:35.937Z,10.93
2019-03-04T14:58:06.576Z,8.43
2019-03-04T15:00:38.940Z,4.60
2019-03-04T15:03:19.159Z,6.05
2019-03-04T15:05:41.691Z,3.30
2019-03-04T15:08:12.177Z,8.45
2019-03-04T15:10:42.810Z,24.50
2019-03-04T15:13:14.876Z,37.13
2019-03-04T15:15:45.463Z,24.27
2019-03-04T15:18:15.938Z,4.65
2019-03-04T15:20:46.520Z,9.05
2019-03-04T15:23:17.097Z,5.90
2019-03-04T15:25:47.736Z,7.12
2019-03-04T15:28:20.115Z,8.00
2019-03-04T15:31:04.383Z,11.83
2019-03-04T15:33:34.954Z,5.37
2019-03-04T15:36:05.529Z,36.65
2019-03-04T15:38:36.058Z,25.45
2019-03-04T15:41:06.690Z,51.35
2019-03-04T15:43:37.426Z,23.77
2019-03-04T15:46:08.348Z,17.75
2019-03-04T15:48:38.894Z,10.72
2019-03-04T15:51:09.424Z,7.67
2019-03-04T15:53:40.013Z,3.90
2019-03-04T15:56:10.506Z,3.05
2019-03-04T15:58:40.974Z,2.60
2019-03-04T16:01:11.755Z,5.30
2019-03-04T16:03:42.327Z,5.37
2019-03-04T16:06:12.806Z,4.40
2019-03-04T16:08:44.041Z,4.50
2019-03-04T16:11:14.758Z,8.90
2019-03-04T16:13:52.590Z,7.70
2019-03-04T16:16:17.471Z,10.30
2019-03-04T16:18:48.208Z,22.10
2019-03-04T16:21:18.775Z,44.40
2019-03-04T16:23:49.287Z,12.55
2019-03-04T16:26:19.925Z,12.82
2019-03-04T16:28:50.667Z,22.42
2019-03-04T16:31:21.154Z,10.20
2019-03-04T16:33:51.842Z,17.42
2019-03-04T16:36:22.314Z,47.83
2019-03-04T16:38:52.886Z,6.45
2019-03-04T16:41:23.517Z,14.03
2019-03-04T16:43:54.159Z,89.28
2019-03-04T16:46:24.648Z,20.50
2019-03-04T16:48:55.220Z,210.55
2019-03-04T16:51:25.712Z,93.27
2019-03-04T16:53:56.281Z,84.77
2019-03-04T16:56:26.914Z,231.38
2019-03-04T16:58:57.444Z,191.90
2019-03-04T17:01:27.975Z,106.15
2019-03-04T17:03:59.638Z,267.37
2019-03-04T17:06:30.267Z,152.85
2019-03-04T17:09:00.893Z,173.15
2019-03-04T17:11:32.985Z,258.25
2019-03-04T17:14:04.725Z,227.38
2019-03-04T17:16:35.767Z,233.15
2019-03-04T17:19:06.395Z,208.63
2019-03-04T17:21:37.041Z,111.62
2019-03-04T17:24:07.666Z,69.47
2019-03-04T17:26:38.295Z,54.75
2019-03-04T17:29:08.874Z,13.95
2019-03-04T17:31:39.498Z,60.58
2019-03-04T17:34:10.094Z,53.50
2019-03-04T17:36:40.723Z,44.80
2019-03-04T17:39:11.463Z,54.70
2019-03-04T17:41:43.626Z,57.62
2019-03-04T17:44:22.621Z,27.05
2019-03-04T17:46:54.154Z,26.15
2019-03-04T17:49:24.776Z,10.88
2019-03-04T17:51:55.311Z,14.95
2019-03-04T17:54:26.013Z,45.12
2019-03-04T17:56:56.570Z,8.05
2019-03-04T17:59:27.118Z,22.70
2019-03-04T18:01:57.631Z,12.98
2019-03-04T18:04:28.181Z,20.12
2019-03-04T18:06:58.764Z,19.32
2019-03-04T18:09:29.294Z,8.75
2019-03-04T18:11:59.937Z,11.03
2019-03-04T18:14:30.430Z,5.45
2019-03-04T18:17:00.947Z,11.78
2019-03-04T18:19:31.529Z,20.40
2019-03-04T18:22:02.059Z,15.50
2019-03-04T18:24:32.687Z,9.35
2019-03-04T18:27:03.253Z,12.43
2019-03-04T18:29:39.609Z,8.60
2019-03-04T18:32:16.471Z,7.53
2019-03-04T18:34:50.267Z,6.55
2019-03-04T18:37:46.913Z,7.08
2019-03-04T18:40:29.816Z,9.70
2019-03-04T18:43:03.642Z,6.97
2019-03-04T18:45:43.289Z,14.25
2019-03-04T18:48:22.878Z,9.38
2019-03-04T18:50:53.434Z,14.80
2019-03-04T18:53:23.997Z,5.08
2019-03-04T18:55:54.568Z,4.58
2019-03-04T18:58:25.156Z,2.45
2019-03-04T19:00:55.780Z,2.80
2019-03-04T19:03:26.429Z,9.78
2019-03-04T19:05:57.057Z,3.20
2019-03-04T19:08:27.895Z,4.97
2019-03-04T19:10:58.435Z,2.60
2019-03-04T19:13:28.980Z,2.42
2019-03-04T19:15:59.697Z,4.10
2019-03-04T19:18:30.327Z,2.87
2019-03-04T19:21:00.868Z,6.08
2019-03-04T19:23:31.527Z,5.00
2019-03-04T19:26:02.127Z,4.40
2019-03-04T19:28:32.668Z,2.02
2019-03-04T19:31:03.290Z,4.75
2019-03-04T19:33:34.431Z,3.67
2019-03-04T19:36:05.060Z,3.80
2019-03-04T19:38:35.798Z,2.35
2019-03-04T19:41:07.562Z,2.67
2019-03-04T19:43:38.196Z,5.17
2019-03-04T19:46:08.929Z,1.80
2019-03-04T19:48:39.478Z,2.52
2019-03-04T19:51:10.097Z,1.92
2019-03-04T19:53:40.617Z,5.15
2019-03-04T19:56:11.301Z,2.37
2019-03-04T19:58:41.989Z,10.10
2019-03-04T20:01:12.629Z,38.53
2019-03-04T20:03:43.267Z,3.98
2019-03-04T20:06:15.226Z,2.22
2019-03-04T20:08:45.854Z,1.20
2019-03-04T20:11:16.481Z,1.32
2019-03-04T20:13:47.126Z,4.55
2019-03-04T20:16:17.850Z,6.83
2019-03-04T20:18:48.592Z,15.20
2019-03-04T20:21:19.184Z,2.98
2019-03-04T20:23:49.655Z,5.40
2019-03-04T20:26:20.282Z,6.15
2019-03-04T20:28:50.926Z,6.80
2019-03-04T20:31:21.466Z,1.57
2019-03-04T20:33:52.024Z,2.85
2019-03-04T20:36:22.611Z,2.08
2019-03-04T20:38:53.243Z,1.85
2019-03-04T20:41:23.939Z,3.08
2019-03-04T20:43:54.722Z,2.75
2019-03-04T20:46:25.252Z,4.15
2019-03-04T20:48:55.884Z,2.87
